sensor_id;sensor_type;location;lat;lon;timestamp;temperature;humidity
3548;DHT22;1788;49.400;11.092;2023-04-03T00:01:46;7.10;53.40
3548;DHT22;1788;49.400;11.092;2023-04-03T00:04:14;7.10;52.80
3548;DHT22;1788;49.400;11.092;2023-04-03T00:06:40;7.10;52.80
3548;DHT22;1788;49.400;11.092;2023-04-03T00:09:08;7.10;52.80
3548;DHT22;1788;49.400;11.092;2023-04-03T00:11:34;7.10;52.80
3548;DHT22;1788;49.400;11.092;2023-04-03T00:14:01;7.10;52.80
3548;DHT22;1788;49.400;11.092;2023-04-03T00:16:28;7.10;52.70
3548;DHT22;1788;49.400;11.092;2023-04-03T00:18:54;7.10;52.80
3548;DHT22;1788;49.400;11.092;2023-04-03T00:21:21;7.20;52.80
3548;DHT22;1788;49.400;11.092;2023-04-03T00:23:47;7.20;52.80
3548;DHT22;1788;49.400;11.092;2023-04-03T00:26:14;7.20;52.80
3548;DHT22;1788;49.400;11.092;2023-04-03T00:28:41;7.20;52.80
3548;DHT22;1788;49.400;11.092;2023-04-03T00:31:09;7.20;52.70
3548;DHT22;1788;49.400;11.092;2023-04-03T00:33:35;7.20;52.70
3548;DHT22;1788;49.400;11.092;2023-04-03T00:38:29;7.10;52.60
3548;DHT22;1788;49.400;11.092;2023-04-03T00:40:56;7.10;52.60
3548;DHT22;1788;49.400;11.092;2023-04-03T00:43:23;7.10;52.60
3548;DHT22;1788;49.400;11.092;2023-04-03T00:45:50;7.00;52.50
3548;DHT22;1788;49.400;11.092;2023-04-03T00:48:18;7.00;52.60
3548;DHT22;1788;49.400;11.092;2023-04-03T00:50:42;7.00;52.60
3548;DHT22;1788;49.400;11.092;2023-04-03T00:53:11;7.00;52.60
3548;DHT22;1788;49.400;11.092;2023-04-03T00:55:36;6.90;52.40
3548;DHT22;1788;49.400;11.092;2023-04-03T00:58:04;6.90;52.50
3548;DHT22;1788;49.400;11.092;2023-04-03T01:00:30;6.90;52.50
3548;DHT22;1788;49.400;11.092;2023-04-03T01:02:58;6.90;52.50
3548;DHT22;1788;49.400;11.092;2023-04-03T01:05:24;6.90;52.50
3548;DHT22;1788;49.400;11.092;2023-04-03T01:07:51;6.90;52.50
3548;DHT22;1788;49.400;11.092;2023-04-03T01:10:18;6.90;52.50
3548;DHT22;1788;49.400;11.092;2023-04-03T01:12:45;6.90;52.50
3548;DHT22;1788;49.400;11.092;2023-04-03T01:15:12;6.80;52.50
3548;DHT22;1788;49.400;11.092;2023-04-03T01:17:39;6.80;52.50
3548;DHT22;1788;49.400;11.092;2023-04-03T01:22:32;6.80;52.50
3548;DHT22;1788;49.400;11.092;2023-04-03T01:24:57;6.80;52.50
3548;DHT22;1788;49.400;11.092;2023-04-03T01:27:24;6.80;52.50
3548;DHT22;1788;49.400;11.092;2023-04-03T01:29:51;6.80;52.50
3548;DHT22;1788;49.400;11.092;2023-04-03T01:32:18;6.80;52.40
3548;DHT22;1788;49.400;11.092;2023-04-03T01:34:44;6.80;52.40
3548;DHT22;1788;49.400;11.092;2023-04-03T01:37:11;6.80;52.50
3548;DHT22;1788;49.400;11.092;2023-04-03T01:39:38;6.80;52.40
3548;DHT22;1788;49.400;11.092;2023-04-03T01:42:04;6.70;52.40
3548;DHT22;1788;49.400;11.092;2023-04-03T01:44:31;6.70;52.40
3548;DHT22;1788;49.400;11.092;2023-04-03T01:46:57;6.70;52.50
3548;DHT22;1788;49.400;11.092;2023-04-03T01:49:24;6.70;52.40
3548;DHT22;1788;49.400;11.092;2023-04-03T01:51:51;6.70;52.40
3548;DHT22;1788;49.400;11.092;2023-04-03T01:54:17;6.60;52.30
3548;DHT22;1788;49.400;11.092;2023-04-03T01:56:45;6.60;52.40
3548;DHT22;1788;49.400;11.092;2023-04-03T01:59:11;6.60;52.40
3548;DHT22;1788;49.400;11.092;2023-04-03T02:01:38;6.60;52.40
3548;DHT22;1788;49.400;11.092;2023-04-03T02:04:04;6.50;52.30
3548;DHT22;1788;49.400;11.092;2023-04-03T02:06:31;6.50;52.40
3548;DHT22;1788;49.400;11.092;2023-04-03T02:08:58;6.50;52.40
3548;DHT22;1788;49.400;11.092;2023-04-03T02:11:24;6.50;52.40
3548;DHT22;1788;49.400;11.092;2023-04-03T02:13:51;6.40;52.40
3548;DHT22;1788;49.400;11.092;2023-04-03T02:16:17;6.50;52.40
3548;DHT22;1788;49.400;11.092;2023-04-03T02:18:44;6.40;52.40
3548;DHT22;1788;49.400;11.092;2023-04-03T02:21:11;6.40;52.40
3548;DHT22;1788;49.400;11.092;2023-04-03T02:23:38;6.40;52.40
3548;DHT22;1788;49.400;11.092;2023-04-03T02:26:06;6.40;52.30
3548;DHT22;1788;49.400;11.092;2023-04-03T02:28:32;6.40;52.30
3548;DHT22;1788;49.400;11.092;2023-04-03T02:30:58;6.40;52.30
3548;DHT22;1788;49.400;11.092;2023-04-03T02:33:24;6.40;52.30
3548;DHT22;1788;49.400;11.092;2023-04-03T02:38:18;6.40;52.40
3548;DHT22;1788;49.400;11.092;2023-04-03T02:40:44;6.40;52.30
3548;DHT22;1788;49.400;11.092;2023-04-03T02:43:11;6.30;52.20
3548;DHT22;1788;49.400;11.092;2023-04-03T02:45:37;6.30;52.30
3548;DHT22;1788;49.400;11.092;2023-04-03T02:48:04;6.30;52.30
3548;DHT22;1788;49.400;11.092;2023-04-03T02:50:31;6.20;52.30
3548;DHT22;1788;49.400;11.092;2023-04-03T02:52:57;6.20;52.30
3548;DHT22;1788;49.400;11.092;2023-04-03T02:55:24;6.10;52.30
3548;DHT22;1788;49.400;11.092;2023-04-03T02:57:51;6.10;52.50
3548;DHT22;1788;49.400;11.092;2023-04-03T03:00:18;6.10;52.50
3548;DHT22;1788;49.400;11.092;2023-04-03T03:02:44;6.00;52.50
3548;DHT22;1788;49.400;11.092;2023-04-03T03:05:11;6.10;52.60
3548;DHT22;1788;49.400;11.092;2023-04-03T03:07:38;6.10;52.60
3548;DHT22;1788;49.400;11.092;2023-04-03T03:10:05;6.00;52.60
3548;DHT22;1788;49.400;11.092;2023-04-03T03:12:32;6.00;52.60
3548;DHT22;1788;49.400;11.092;2023-04-03T03:14:58;6.00;52.70
3548;DHT22;1788;49.400;11.092;2023-04-03T03:17:25;6.00;52.70
3548;DHT22;1788;49.400;11.092;2023-04-03T03:19:52;6.00;52.80
3548;DHT22;1788;49.400;11.092;2023-04-03T03:22:18;6.00;52.80
3548;DHT22;1788;49.400;11.092;2023-04-03T03:24:45;6.00;52.80
3548;DHT22;1788;49.400;11.092;2023-04-03T03:27:11;6.10;52.90
3548;DHT22;1788;49.400;11.092;2023-04-03T03:29:38;6.10;52.90
3548;DHT22;1788;49.400;11.092;2023-04-03T03:32:05;6.10;52.90
3548;DHT22;1788;49.400;11.092;2023-04-03T03:34:31;6.10;52.90
3548;DHT22;1788;49.400;11.092;2023-04-03T03:36:59;6.10;53.00
3548;DHT22;1788;49.400;11.092;2023-04-03T03:39:25;6.10;53.00
3548;DHT22;1788;49.400;11.092;2023-04-03T03:41:52;6.10;53.00
3548;DHT22;1788;49.400;11.092;2023-04-03T03:44:19;6.10;53.00
3548;DHT22;1788;49.400;11.092;2023-04-03T03:46:45;6.10;53.00
3548;DHT22;1788;49.400;11.092;2023-04-03T03:49:12;6.10;52.70
3548;DHT22;1788;49.400;11.092;2023-04-03T03:51:39;6.10;53.00
3548;DHT22;1788;49.400;11.092;2023-04-03T03:54:06;6.10;53.00
3548;DHT22;1788;49.400;11.092;2023-04-03T03:56:33;6.10;53.10
3548;DHT22;1788;49.400;11.092;2023-04-03T03:58:59;6.10;53.20
3548;DHT22;1788;49.400;11.092;2023-04-03T04:01:25;6.10;53.20
3548;DHT22;1788;49.400;11.092;2023-04-03T04:03:52;6.10;53.20
3548;DHT22;1788;49.400;11.092;2023-04-03T04:06:19;6.10;53.30
3548;DHT22;1788;49.400;11.092;2023-04-03T04:08:46;6.10;53.40
3548;DHT22;1788;49.400;11.092;2023-04-03T04:11:13;6.00;53.30
3548;DHT22;1788;49.400;11.092;2023-04-03T04:13:39;6.00;53.40
3548;DHT22;1788;49.400;11.092;2023-04-03T04:16:06;6.00;53.50
3548;DHT22;1788;49.400;11.092;2023-04-03T04:18:33;6.00;53.60
3548;DHT22;1788;49.400;11.092;2023-04-03T04:20:59;6.00;53.70
3548;DHT22;1788;49.400;11.092;2023-04-03T04:23:26;6.00;53.80
3548;DHT22;1788;49.400;11.092;2023-04-03T04:25:52;6.00;53.90
3548;DHT22;1788;49.400;11.092;2023-04-03T04:28:20;5.90;53.90
3548;DHT22;1788;49.400;11.092;2023-04-03T04:30:46;5.90;53.90
3548;DHT22;1788;49.400;11.092;2023-04-03T04:33:13;5.90;53.90
3548;DHT22;1788;49.400;11.092;2023-04-03T04:35:41;5.90;54.00
3548;DHT22;1788;49.400;11.092;2023-04-03T04:38:06;6.00;54.10
3548;DHT22;1788;49.400;11.092;2023-04-03T04:40:33;6.00;54.20
3548;DHT22;1788;49.400;11.092;2023-04-03T04:42:59;5.90;54.10
3548;DHT22;1788;49.400;11.092;2023-04-03T04:45:27;5.90;54.20
3548;DHT22;1788;49.400;11.092;2023-04-03T04:47:55;5.90;54.20
3548;DHT22;1788;49.400;11.092;2023-04-03T04:50:20;6.00;54.30
3548;DHT22;1788;49.400;11.092;2023-04-03T04:52:47;5.90;54.30
3548;DHT22;1788;49.400;11.092;2023-04-03T04:55:13;5.90;54.30
3548;DHT22;1788;49.400;11.092;2023-04-03T04:57:40;5.80;54.40
3548;DHT22;1788;49.400;11.092;2023-04-03T05:00:07;5.80;54.40
3548;DHT22;1788;49.400;11.092;2023-04-03T05:02:34;5.80;54.40
3548;DHT22;1788;49.400;11.092;2023-04-03T05:05:00;5.80;54.50
3548;DHT22;1788;49.400;11.092;2023-04-03T05:07:27;5.80;54.60
3548;DHT22;1788;49.400;11.092;2023-04-03T05:09:54;5.90;54.70
3548;DHT22;1788;49.400;11.092;2023-04-03T05:12:20;5.90;54.90
3548;DHT22;1788;49.400;11.092;2023-04-03T05:14:47;5.90;54.90
3548;DHT22;1788;49.400;11.092;2023-04-03T05:17:14;6.00;54.90
3548;DHT22;1788;49.400;11.092;2023-04-03T05:19:41;5.90;54.90
3548;DHT22;1788;49.400;11.092;2023-04-03T05:22:08;6.00;55.00
3548;DHT22;1788;49.400;11.092;2023-04-03T05:24:35;5.90;54.90
3548;DHT22;1788;49.400;11.092;2023-04-03T05:27:01;6.00;55.00
3548;DHT22;1788;49.400;11.092;2023-04-03T05:29:28;6.00;55.00
3548;DHT22;1788;49.400;11.092;2023-04-03T05:31:55;5.90;55.00
3548;DHT22;1788;49.400;11.092;2023-04-03T05:34:21;6.00;55.10
3548;DHT22;1788;49.400;11.092;2023-04-03T05:36:48;6.00;55.10
3548;DHT22;1788;49.400;11.092;2023-04-03T05:39:14;6.00;55.10
3548;DHT22;1788;49.400;11.092;2023-04-03T05:41:42;6.00;55.20
3548;DHT22;1788;49.400;11.092;2023-04-03T05:44:08;6.00;55.20
3548;DHT22;1788;49.400;11.092;2023-04-03T05:46:35;6.00;55.20
3548;DHT22;1788;49.400;11.092;2023-04-03T05:49:02;6.10;55.80
3548;DHT22;1788;49.400;11.092;2023-04-03T05:51:33;6.10;55.20
3548;DHT22;1788;49.400;11.092;2023-04-03T05:53:58;6.20;55.80
3548;DHT22;1788;49.400;11.092;2023-04-03T05:56:22;6.10;55.20
3548;DHT22;1788;49.400;11.092;2023-04-03T05:58:49;6.20;55.30
3548;DHT22;1788;49.400;11.092;2023-04-03T06:01:15;6.20;55.30
3548;DHT22;1788;49.400;11.092;2023-04-03T06:03:42;6.10;55.20
3548;DHT22;1788;49.400;11.092;2023-04-03T06:06:11;6.10;55.20
3548;DHT22;1788;49.400;11.092;2023-04-03T06:08:35;6.10;55.30
3548;DHT22;1788;49.400;11.092;2023-04-03T06:11:02;6.10;55.30
3548;DHT22;1788;49.400;11.092;2023-04-03T06:13:29;6.10;55.60
3548;DHT22;1788;49.400;11.092;2023-04-03T06:15:56;6.00;55.40
3548;DHT22;1788;49.400;11.092;2023-04-03T06:18:22;6.10;55.50
3548;DHT22;1788;49.400;11.092;2023-04-03T06:20:49;6.10;55.50
3548;DHT22;1788;49.400;11.092;2023-04-03T06:23:16;6.10;55.50
3548;DHT22;1788;49.400;11.092;2023-04-03T06:25:43;6.10;55.70
3548;DHT22;1788;49.400;11.092;2023-04-03T06:28:10;6.00;55.50
3548;DHT22;1788;49.400;11.092;2023-04-03T06:30:36;6.10;55.60
3548;DHT22;1788;49.400;11.092;2023-04-03T06:33:03;6.10;55.60
3548;DHT22;1788;49.400;11.092;2023-04-03T06:35:29;6.10;55.60
3548;DHT22;1788;49.400;11.092;2023-04-03T06:37:56;6.20;55.70
3548;DHT22;1788;49.400;11.092;2023-04-03T06:40:23;6.20;55.70
3548;DHT22;1788;49.400;11.092;2023-04-03T06:42:49;6.20;55.60
3548;DHT22;1788;49.400;11.092;2023-04-03T06:45:17;6.30;55.70
3548;DHT22;1788;49.400;11.092;2023-04-03T06:47:43;6.20;55.60
3548;DHT22;1788;49.400;11.092;2023-04-03T06:50:10;6.30;55.70
3548;DHT22;1788;49.400;11.092;2023-04-03T06:52:37;6.30;55.60
3548;DHT22;1788;49.400;11.092;2023-04-03T06:55:03;6.30;55.60
3548;DHT22;1788;49.400;11.092;2023-04-03T06:57:30;6.40;55.70
3548;DHT22;1788;49.400;11.092;2023-04-03T06:59:56;6.40;55.70
3548;DHT22;1788;49.400;11.092;2023-04-03T07:02:23;6.40;55.70
3548;DHT22;1788;49.400;11.092;2023-04-03T07:04:49;6.50;55.70
3548;DHT22;1788;49.400;11.092;2023-04-03T07:07:16;6.50;55.70
3548;DHT22;1788;49.400;11.092;2023-04-03T07:09:43;6.50;55.70
3548;DHT22;1788;49.400;11.092;2023-04-03T07:12:10;6.60;55.60
3548;DHT22;1788;49.400;11.092;2023-04-03T07:14:37;6.60;55.60
3548;DHT22;1788;49.400;11.092;2023-04-03T07:17:03;6.60;55.60
3548;DHT22;1788;49.400;11.092;2023-04-03T07:19:30;6.60;55.50
3548;DHT22;1788;49.400;11.092;2023-04-03T07:21:57;6.70;55.50
3548;DHT22;1788;49.400;11.092;2023-04-03T07:24:23;6.70;55.50
3548;DHT22;1788;49.400;11.092;2023-04-03T07:26:50;6.80;55.50
3548;DHT22;1788;49.400;11.092;2023-04-03T07:29:16;6.80;55.50
3548;DHT22;1788;49.400;11.092;2023-04-03T07:31:44;6.90;55.40
3548;DHT22;1788;49.400;11.092;2023-04-03T07:34:10;6.90;55.40
3548;DHT22;1788;49.400;11.092;2023-04-03T07:36:37;7.00;55.30
3548;DHT22;1788;49.400;11.092;2023-04-03T07:39:04;7.10;55.30
3548;DHT22;1788;49.400;11.092;2023-04-03T07:41:30;7.10;55.20
3548;DHT22;1788;49.400;11.092;2023-04-03T07:43:58;7.30;55.70
3548;DHT22;1788;49.400;11.092;2023-04-03T07:46:24;7.20;55.10
3548;DHT22;1788;49.400;11.092;2023-04-03T07:48:51;7.30;55.00
3548;DHT22;1788;49.400;11.092;2023-04-03T07:51:17;7.40;55.00
3548;DHT22;1788;49.400;11.092;2023-04-03T07:53:44;7.50;54.90
3548;DHT22;1788;49.400;11.092;2023-04-03T07:56:11;7.50;54.60
3548;DHT22;1788;49.400;11.092;2023-04-03T07:58:37;7.50;54.50
3548;DHT22;1788;49.400;11.092;2023-04-03T08:01:04;7.60;54.50
3548;DHT22;1788;49.400;11.092;2023-04-03T08:03:31;7.60;54.10
3548;DHT22;1788;49.400;11.092;2023-04-03T08:06:01;7.60;54.10
3548;DHT22;1788;49.400;11.092;2023-04-03T08:08:24;7.60;53.90
3548;DHT22;1788;49.400;11.092;2023-04-03T08:10:52;7.60;54.00
3548;DHT22;1788;49.400;11.092;2023-04-03T08:13:18;7.70;54.00
3548;DHT22;1788;49.400;11.092;2023-04-03T08:15:45;7.70;53.90
3548;DHT22;1788;49.400;11.092;2023-04-03T08:18:12;7.80;53.80
3548;DHT22;1788;49.400;11.092;2023-04-03T08:20:39;7.90;53.60
3548;DHT22;1788;49.400;11.092;2023-04-03T08:23:06;7.90;53.60
3548;DHT22;1788;49.400;11.092;2023-04-03T08:25:33;8.00;53.50
3548;DHT22;1788;49.400;11.092;2023-04-03T08:27:59;8.00;53.40
3548;DHT22;1788;49.400;11.092;2023-04-03T08:30:25;8.10;53.30
3548;DHT22;1788;49.400;11.092;2023-04-03T08:32:53;8.20;53.10
3548;DHT22;1788;49.400;11.092;2023-04-03T08:35:19;8.20;53.10
3548;DHT22;1788;49.400;11.092;2023-04-03T08:37:46;8.20;53.00
3548;DHT22;1788;49.400;11.092;2023-04-03T08:40:14;8.20;52.80
3548;DHT22;1788;49.400;11.092;2023-04-03T08:45:08;8.30;52.50
3548;DHT22;1788;49.400;11.092;2023-04-03T08:47:37;8.30;52.30
3548;DHT22;1788;49.400;11.092;2023-04-03T08:49:59;8.30;52.40
3548;DHT22;1788;49.400;11.092;2023-04-03T08:57:26;8.60;52.10
3548;DHT22;1788;49.400;11.092;2023-04-03T08:59:46;8.70;51.70
3548;DHT22;1788;49.400;11.092;2023-04-03T09:04:39;8.90;51.30
3548;DHT22;1788;49.400;11.092;2023-04-03T09:07:09;8.90;51.00
3548;DHT22;1788;49.400;11.092;2023-04-03T09:16:54;8.90;50.30
3548;DHT22;1788;49.400;11.092;2023-04-03T09:19:22;8.90;49.90
3548;DHT22;1788;49.400;11.092;2023-04-03T09:21:48;8.90;49.90
3548;DHT22;1788;49.400;11.092;2023-04-03T09:24:15;8.90;49.40
3548;DHT22;1788;49.400;11.092;2023-04-03T09:26:43;8.90;49.20
3548;DHT22;1788;49.400;11.092;2023-04-03T09:29:08;8.80;48.90
3548;DHT22;1788;49.400;11.092;2023-04-03T09:41:21;8.60;48.70
3548;DHT22;1788;49.400;11.092;2023-04-03T09:46:16;8.50;48.70
3548;DHT22;1788;49.400;11.092;2023-04-03T09:48:49;8.50;48.80
3548;DHT22;1788;49.400;11.092;2023-04-03T09:51:08;8.50;48.80
3548;DHT22;1788;49.400;11.092;2023-04-03T09:56:03;8.60;48.70
3548;DHT22;1788;49.400;11.092;2023-04-03T09:58:29;8.60;48.60
3548;DHT22;1788;49.400;11.092;2023-04-03T10:05:48;8.60;48.40
3548;DHT22;1788;49.400;11.092;2023-04-03T10:08:24;8.70;48.40
3548;DHT22;1788;49.400;11.092;2023-04-03T10:10:43;8.80;48.30
3548;DHT22;1788;49.400;11.092;2023-04-03T10:18:02;8.90;47.70
3548;DHT22;1788;49.400;11.092;2023-04-03T10:30:19;9.00;47.30
3548;DHT22;1788;49.400;11.092;2023-04-03T10:47:23;9.20;46.70
3548;DHT22;1788;49.400;11.092;2023-04-03T10:57:08;9.60;46.30
3548;DHT22;1788;49.400;11.092;2023-04-03T11:02:04;9.70;45.90
3548;DHT22;1788;49.400;11.092;2023-04-03T11:04:29;9.80;45.60
3548;DHT22;1788;49.400;11.092;2023-04-03T11:11:51;9.90;45.20
3548;DHT22;1788;49.400;11.092;2023-04-03T11:16:45;10.10;44.20
3548;DHT22;1788;49.400;11.092;2023-04-03T11:19:11;10.20;44.00
3548;DHT22;1788;49.400;11.092;2023-04-03T11:24:04;10.70;43.90
3548;DHT22;1788;49.400;11.092;2023-04-03T11:26:31;10.80;43.40
3548;DHT22;1788;49.400;11.092;2023-04-03T11:38:44;10.80;42.80
3548;DHT22;1788;49.400;11.092;2023-04-03T11:41:10;11.10;42.60
3548;DHT22;1788;49.400;11.092;2023-04-03T11:46:04;12.00;41.90
3548;DHT22;1788;49.400;11.092;2023-04-03T11:55:52;12.80;40.70
3548;DHT22;1788;49.400;11.092;2023-04-03T12:00:46;12.50;40.40
3548;DHT22;1788;49.400;11.092;2023-04-03T12:05:38;12.30;40.30
3548;DHT22;1788;49.400;11.092;2023-04-03T12:10:31;12.60;40.20
3548;DHT22;1788;49.400;11.092;2023-04-03T12:12:58;13.00;40.10
3548;DHT22;1788;49.400;11.092;2023-04-03T12:15:38;13.30;39.60
3548;DHT22;1788;49.400;11.092;2023-04-03T12:17:51;13.80;39.30
3548;DHT22;1788;49.400;11.092;2023-04-03T12:27:40;14.50;37.50
3548;DHT22;1788;49.400;11.092;2023-04-03T12:30:11;14.50;37.50
3548;DHT22;1788;49.400;11.092;2023-04-03T12:32:36;14.80;37.40
3548;DHT22;1788;49.400;11.092;2023-04-03T12:39:55;17.50;35.30
3548;DHT22;1788;49.400;11.092;2023-04-03T12:44:49;18.20;34.00
3548;DHT22;1788;49.400;11.092;2023-04-03T12:49:41;18.30;33.50
3548;DHT22;1788;49.400;11.092;2023-04-03T12:54:36;18.20;33.00
3548;DHT22;1788;49.400;11.092;2023-04-03T12:59:27;19.60;32.10
3548;DHT22;1788;49.400;11.092;2023-04-03T13:04:21;20.70;30.80
3548;DHT22;1788;49.400;11.092;2023-04-03T13:06:49;21.20;30.70
3548;DHT22;1788;49.400;11.092;2023-04-03T13:11:43;21.00;30.30
3548;DHT22;1788;49.400;11.092;2023-04-03T13:16:36;19.00;32.00
3548;DHT22;1788;49.400;11.092;2023-04-03T13:19:03;19.00;31.20
3548;DHT22;1788;49.400;11.092;2023-04-03T13:21:30;19.40;31.30
3548;DHT22;1788;49.400;11.092;2023-04-03T13:23:57;19.90;31.40
3548;DHT22;1788;49.400;11.092;2023-04-03T13:26:24;19.90;30.90
3548;DHT22;1788;49.400;11.092;2023-04-03T13:28:50;18.40;30.80
3548;DHT22;1788;49.400;11.092;2023-04-03T13:31:18;18.40;30.70
3548;DHT22;1788;49.400;11.092;2023-04-03T13:38:38;15.80;31.90
3548;DHT22;1788;49.400;11.092;2023-04-03T13:41:20;15.30;32.10
3548;DHT22;1788;49.400;11.092;2023-04-03T13:43:33;15.50;32.50
3548;DHT22;1788;49.400;11.092;2023-04-03T13:48:25;15.80;31.60
3548;DHT22;1788;49.400;11.092;2023-04-03T13:53:19;17.10;30.70
3548;DHT22;1788;49.400;11.092;2023-04-03T14:00:45;17.60;30.00
3548;DHT22;1788;49.400;11.092;2023-04-03T14:05:33;17.10;30.40
3548;DHT22;1788;49.400;11.092;2023-04-03T14:08:00;15.80;31.00
3548;DHT22;1788;49.400;11.092;2023-04-03T14:10:27;15.80;30.90
3548;DHT22;1788;49.400;11.092;2023-04-03T14:12:53;15.30;31.30
3548;DHT22;1788;49.400;11.092;2023-04-03T14:15:22;14.80;31.50
3548;DHT22;1788;49.400;11.092;2023-04-03T14:17:47;14.70;31.80
3548;DHT22;1788;49.400;11.092;2023-04-03T14:22:40;16.40;31.10
3548;DHT22;1788;49.400;11.092;2023-04-03T14:25:07;17.00;30.70
3548;DHT22;1788;49.400;11.092;2023-04-03T14:27:35;16.90;30.60
3548;DHT22;1788;49.400;11.092;2023-04-03T14:30:02;17.40;30.20
3548;DHT22;1788;49.400;11.092;2023-04-03T14:32:28;17.40;30.10
3548;DHT22;1788;49.400;11.092;2023-04-03T14:34:55;16.50;30.70
3548;DHT22;1788;49.400;11.092;2023-04-03T14:37:23;16.40;30.40
3548;DHT22;1788;49.400;11.092;2023-04-03T14:39:49;15.90;30.60
3548;DHT22;1788;49.400;11.092;2023-04-03T14:42:16;15.40;30.80
3548;DHT22;1788;49.400;11.092;2023-04-03T14:44:42;15.20;30.90
3548;DHT22;1788;49.400;11.092;2023-04-03T14:49:36;14.60;31.30
3548;DHT22;1788;49.400;11.092;2023-04-03T14:52:03;14.50;31.10
3548;DHT22;1788;49.400;11.092;2023-04-03T14:54:29;14.70;31.20
3548;DHT22;1788;49.400;11.092;2023-04-03T14:56:57;14.90;31.20
3548;DHT22;1788;49.400;11.092;2023-04-03T14:59:22;14.80;31.20
3548;DHT22;1788;49.400;11.092;2023-04-03T15:01:49;14.80;31.30
3548;DHT22;1788;49.400;11.092;2023-04-03T15:04:17;14.40;32.00
3548;DHT22;1788;49.400;11.092;2023-04-03T15:06:43;14.40;31.30
3548;DHT22;1788;49.400;11.092;2023-04-03T15:09:14;14.10;31.40
3548;DHT22;1788;49.400;11.092;2023-04-03T15:11:36;13.70;31.50
3548;DHT22;1788;49.400;11.092;2023-04-03T15:14:04;13.40;31.60
3548;DHT22;1788;49.400;11.092;2023-04-03T15:16:30;13.00;31.60
3548;DHT22;1788;49.400;11.092;2023-04-03T15:18:57;13.00;31.90
3548;DHT22;1788;49.400;11.092;2023-04-03T15:21:24;13.40;31.90
3548;DHT22;1788;49.400;11.092;2023-04-03T15:23:51;13.40;31.80
3548;DHT22;1788;49.400;11.092;2023-04-03T15:26:18;14.00;31.70
3548;DHT22;1788;49.400;11.092;2023-04-03T15:28:45;14.00;31.60
3548;DHT22;1788;49.400;11.092;2023-04-03T15:31:13;14.00;32.00
3548;DHT22;1788;49.400;11.092;2023-04-03T15:33:40;14.00;31.60
3548;DHT22;1788;49.400;11.092;2023-04-03T15:36:06;13.90;31.70
3548;DHT22;1788;49.400;11.092;2023-04-03T15:38:33;13.70;31.80
3548;DHT22;1788;49.400;11.092;2023-04-03T15:41:00;13.40;31.90
3548;DHT22;1788;49.400;11.092;2023-04-03T15:43:26;13.20;32.00
3548;DHT22;1788;49.400;11.092;2023-04-03T15:45:54;13.20;32.20
3548;DHT22;1788;49.400;11.092;2023-04-03T15:48:19;13.20;32.20
3548;DHT22;1788;49.400;11.092;2023-04-03T15:50:46;13.30;32.20
3548;DHT22;1788;49.400;11.092;2023-04-03T15:53:13;13.30;32.10
3548;DHT22;1788;49.400;11.092;2023-04-03T15:55:39;13.30;32.10
3548;DHT22;1788;49.400;11.092;2023-04-03T15:58:06;13.30;32.00
3548;DHT22;1788;49.400;11.092;2023-04-03T16:00:33;13.20;32.00
3548;DHT22;1788;49.400;11.092;2023-04-03T16:05:26;13.00;32.00
3548;DHT22;1788;49.400;11.092;2023-04-03T16:07:52;12.90;32.00
3548;DHT22;1788;49.400;11.092;2023-04-03T16:10:19;12.70;32.00
3548;DHT22;1788;49.400;11.092;2023-04-03T16:12:45;12.40;32.10
3548;DHT22;1788;49.400;11.092;2023-04-03T16:15:12;12.20;32.10
3548;DHT22;1788;49.400;11.092;2023-04-03T16:17:39;12.00;32.20
3548;DHT22;1788;49.400;11.092;2023-04-03T16:20:06;11.70;32.30
3548;DHT22;1788;49.400;11.092;2023-04-03T16:22:34;11.20;32.50
3548;DHT22;1788;49.400;11.092;2023-04-03T16:25:01;11.20;32.50
3548;DHT22;1788;49.400;11.092;2023-04-03T16:27:27;11.00;32.60
3548;DHT22;1788;49.400;11.092;2023-04-03T16:29:54;10.80;32.70
3548;DHT22;1788;49.400;11.092;2023-04-03T16:32:21;10.70;32.90
3548;DHT22;1788;49.400;11.092;2023-04-03T16:34:47;10.60;33.60
3548;DHT22;1788;49.400;11.092;2023-04-03T16:37:15;10.60;33.20
3548;DHT22;1788;49.400;11.092;2023-04-03T16:39:41;10.70;33.30
3548;DHT22;1788;49.400;11.092;2023-04-03T16:42:07;10.80;33.40
3548;DHT22;1788;49.400;11.092;2023-04-03T16:44:35;10.80;33.40
3548;DHT22;1788;49.400;11.092;2023-04-03T16:47:02;10.80;33.30
3548;DHT22;1788;49.400;11.092;2023-04-03T16:49:29;10.80;33.30
3548;DHT22;1788;49.400;11.092;2023-04-03T16:51:55;10.70;33.20
3548;DHT22;1788;49.400;11.092;2023-04-03T16:54:22;10.70;33.30
3548;DHT22;1788;49.400;11.092;2023-04-03T16:56:49;10.60;33.30
3548;DHT22;1788;49.400;11.092;2023-04-03T16:59:15;10.50;33.30
3548;DHT22;1788;49.400;11.092;2023-04-03T17:01:42;10.40;33.30
3548;DHT22;1788;49.400;11.092;2023-04-03T17:04:09;10.30;33.30
3548;DHT22;1788;49.400;11.092;2023-04-03T17:06:35;10.20;33.30
3548;DHT22;1788;49.400;11.092;2023-04-03T17:09:02;10.10;33.40
3548;DHT22;1788;49.400;11.092;2023-04-03T17:11:29;9.90;34.20
3548;DHT22;1788;49.400;11.092;2023-04-03T17:13:55;9.80;34.30
3548;DHT22;1788;49.400;11.092;2023-04-03T17:16:22;9.70;34.40
3548;DHT22;1788;49.400;11.092;2023-04-03T17:18:48;9.50;34.50
3548;DHT22;1788;49.400;11.092;2023-04-03T17:21:15;9.30;34.50
3548;DHT22;1788;49.400;11.092;2023-04-03T17:23:42;9.20;34.70
3548;DHT22;1788;49.400;11.092;2023-04-03T17:26:09;9.00;34.70
3548;DHT22;1788;49.400;11.092;2023-04-03T17:28:35;8.80;34.80
3548;DHT22;1788;49.400;11.092;2023-04-03T17:31:02;8.70;35.00
3548;DHT22;1788;49.400;11.092;2023-04-03T17:33:29;8.60;35.10
3548;DHT22;1788;49.400;11.092;2023-04-03T17:35:56;8.50;35.30
3548;DHT22;1788;49.400;11.092;2023-04-03T17:38:22;8.40;35.40
3548;DHT22;1788;49.400;11.092;2023-04-03T17:40:49;8.30;35.50
3548;DHT22;1788;49.400;11.092;2023-04-03T17:43:17;8.20;35.60
3548;DHT22;1788;49.400;11.092;2023-04-03T17:45:44;8.10;35.70
3548;DHT22;1788;49.400;11.092;2023-04-03T17:48:10;8.00;35.80
3548;DHT22;1788;49.400;11.092;2023-04-03T17:50:37;7.90;35.90
3548;DHT22;1788;49.400;11.092;2023-04-03T17:53:03;7.80;36.00
3548;DHT22;1788;49.400;11.092;2023-04-03T17:55:30;7.80;36.20
3548;DHT22;1788;49.400;11.092;2023-04-03T17:57:57;7.70;36.30
3548;DHT22;1788;49.400;11.092;2023-04-03T18:00:23;7.70;36.40
3548;DHT22;1788;49.400;11.092;2023-04-03T18:05:17;7.50;36.40
3548;DHT22;1788;49.400;11.092;2023-04-03T18:07:44;7.40;36.50
3548;DHT22;1788;49.400;11.092;2023-04-03T18:10:11;7.40;36.70
3548;DHT22;1788;49.400;11.092;2023-04-03T18:12:37;7.30;36.70
3548;DHT22;1788;49.400;11.092;2023-04-03T18:15:04;7.30;36.80
3548;DHT22;1788;49.400;11.092;2023-04-03T18:17:31;7.20;37.00
3548;DHT22;1788;49.400;11.092;2023-04-03T18:19:58;7.20;37.00
3548;DHT22;1788;49.400;11.092;2023-04-03T18:22:24;7.20;37.10
3548;DHT22;1788;49.400;11.092;2023-04-03T18:24:51;7.10;37.00
3548;DHT22;1788;49.400;11.092;2023-04-03T18:27:18;7.10;37.10
3548;DHT22;1788;49.400;11.092;2023-04-03T18:29:48;7.00;37.20
3548;DHT22;1788;49.400;11.092;2023-04-03T18:32:13;7.00;37.20
3548;DHT22;1788;49.400;11.092;2023-04-03T18:34:39;6.90;37.40
3548;DHT22;1788;49.400;11.092;2023-04-03T18:37:06;6.90;37.30
3548;DHT22;1788;49.400;11.092;2023-04-03T18:39:33;6.90;38.10
3548;DHT22;1788;49.400;11.092;2023-04-03T18:44:27;6.90;37.50
3548;DHT22;1788;49.400;11.092;2023-04-03T18:46:53;6.90;37.50
3548;DHT22;1788;49.400;11.092;2023-04-03T18:49:20;6.80;37.40
3548;DHT22;1788;49.400;11.092;2023-04-03T18:51:46;6.80;37.40